createdAt,value
2018-05-08T00:00:29.288Z,21.02
2018-05-08T00:02:57.692Z,20.84
2018-05-08T00:05:26.108Z,20.72
2018-05-08T00:07:55.407Z,20.74
2018-05-08T00:10:24.602Z,20.71
2018-05-08T00:12:53.741Z,20.75
2018-05-08T00:15:23.265Z,20.76
2018-05-08T00:17:51.642Z,20.72
2018-05-08T00:20:20.008Z,20.65
2018-05-08T00:22:48.334Z,20.58
2018-05-08T00:25:17.554Z,20.59
2018-05-08T00:27:45.890Z,20.54
2018-05-08T00:30:14.244Z,20.51
2018-05-08T00:32:42.672Z,20.43
2018-05-08T00:35:11.769Z,20.45
2018-05-08T00:37:40.934Z,20.43
2018-05-08T00:40:09.353Z,20.42
2018-05-08T00:42:38.887Z,20.35
2018-05-08T00:45:07.383Z,20.31
2018-05-08T00:47:36.915Z,20.05
2018-05-08T00:50:05.275Z,20.00
2018-05-08T00:52:33.809Z,19.98
2018-05-08T00:55:06.952Z,19.93
2018-05-08T00:57:35.400Z,20.03
2018-05-08T01:00:03.763Z,20.05
2018-05-08T01:02:32.090Z,20.08
2018-05-08T01:05:00.513Z,20.06
2018-05-08T01:07:29.643Z,19.93
2018-05-08T01:09:57.954Z,19.87
2018-05-08T01:12:26.278Z,19.53
2018-05-08T01:14:54.533Z,19.33
2018-05-08T01:17:23.614Z,19.33
2018-05-08T01:19:52.757Z,19.45
2018-05-08T01:22:21.733Z,19.56
2018-05-08T01:24:50.009Z,19.55
2018-05-08T01:27:18.317Z,19.60
2018-05-08T01:29:46.702Z,19.60
2018-05-08T01:32:15.019Z,19.61
2018-05-08T01:34:44.128Z,19.59
2018-05-08T01:37:13.199Z,19.58
2018-05-08T01:39:41.502Z,19.61
2018-05-08T01:42:10.660Z,19.47
2018-05-08T01:44:38.960Z,19.61
2018-05-08T01:47:08.013Z,19.63
2018-05-08T01:49:36.333Z,19.55
2018-05-08T01:52:04.622Z,19.43
2018-05-08T01:54:34.802Z,19.50
2018-05-08T01:57:03.105Z,19.46
2018-05-08T01:59:32.353Z,19.39
2018-05-08T02:02:00.675Z,19.32
2018-05-08T02:04:29.029Z,19.14
2018-05-08T02:06:57.566Z,19.13
2018-05-08T02:09:27.688Z,19.12
2018-05-08T02:11:56.222Z,19.14
2018-05-08T02:14:24.626Z,19.13
2018-05-08T02:16:53.720Z,19.08
2018-05-08T02:19:22.857Z,19.02
2018-05-08T02:21:51.163Z,19.05
2018-05-08T02:24:19.543Z,19.07
2018-05-08T02:26:48.327Z,19.01
2018-05-08T02:29:16.795Z,18.99
2018-05-08T02:31:45.138Z,18.98
2018-05-08T02:34:13.524Z,18.84
2018-05-08T02:36:41.824Z,18.86
2018-05-08T02:39:10.155Z,18.86
2018-05-08T02:41:39.245Z,18.82
2018-05-08T02:44:08.363Z,18.77
2018-05-08T02:46:36.664Z,18.79
2018-05-08T02:49:04.990Z,18.79
2018-05-08T02:51:33.306Z,18.79
2018-05-08T02:54:01.610Z,18.76
2018-05-08T02:56:31.136Z,18.69
2018-05-08T02:59:02.039Z,18.67
2018-05-08T03:01:30.323Z,18.64
2018-05-08T03:03:58.613Z,18.56
2018-05-08T03:06:26.941Z,18.57
2018-05-08T03:08:55.331Z,18.51
2018-05-08T03:11:23.844Z,18.48
2018-05-08T03:13:52.129Z,18.36
2018-05-08T03:16:20.503Z,18.32
2018-05-08T03:18:48.768Z,18.32
2018-05-08T03:21:17.138Z,18.25
2018-05-08T03:23:45.463Z,18.21
2018-05-08T03:26:13.758Z,18.21
2018-05-08T03:28:42.812Z,18.20
2018-05-08T03:31:11.164Z,18.23
2018-05-08T03:33:39.464Z,18.25
2018-05-08T03:36:08.035Z,18.22
2018-05-08T03:38:37.395Z,18.17
2018-05-08T03:41:05.733Z,18.18
2018-05-08T03:43:34.214Z,18.13
2018-05-08T03:46:02.547Z,18.05
2018-05-08T03:48:30.830Z,17.99
2018-05-08T03:50:59.165Z,17.92
2018-05-08T03:53:27.503Z,17.92
2018-05-08T03:55:55.765Z,17.91
2018-05-08T03:58:24.109Z,17.94
2018-05-08T04:01:11.273Z,18.04
2018-05-08T04:03:57.568Z,18.08
2018-05-08T04:09:38.984Z,18.17
2018-05-08T04:12:07.436Z,18.16
2018-05-08T04:14:35.850Z,18.11
2018-05-08T04:17:04.176Z,18.10
2018-05-08T04:19:32.685Z,18.10
2018-05-08T04:22:01.158Z,18.02
2018-05-08T04:24:29.679Z,18.01
2018-05-08T04:26:58.204Z,18.11
2018-05-08T04:29:26.483Z,18.17
2018-05-08T04:31:54.844Z,18.15
2018-05-08T04:34:23.984Z,18.19
2018-05-08T04:36:52.361Z,18.14
2018-05-08T04:39:20.780Z,18.11
2018-05-08T04:41:49.175Z,18.11
2018-05-08T04:44:18.368Z,18.15
2018-05-08T04:46:46.655Z,18.23
2018-05-08T04:49:15.728Z,18.29
2018-05-08T04:51:44.220Z,18.32
2018-05-08T04:54:13.686Z,18.38
2018-05-08T04:56:42.004Z,18.46
2018-05-08T04:59:10.312Z,18.48
2018-05-08T05:01:38.668Z,18.51
2018-05-08T05:04:07.805Z,18.47
2018-05-08T05:06:36.370Z,18.55
2018-05-08T05:09:04.904Z,18.55
2018-05-08T05:11:34.209Z,18.58
2018-05-08T05:14:02.535Z,18.56
2018-05-08T05:16:30.839Z,18.58
2018-05-08T05:18:59.165Z,18.59
2018-05-08T05:21:28.345Z,18.68
2018-05-08T05:23:56.615Z,18.69
2018-05-08T05:26:24.918Z,18.75
2018-05-08T05:28:54.038Z,18.82
2018-05-08T05:31:22.331Z,18.83
2018-05-08T05:33:50.637Z,18.86
2018-05-08T05:36:18.944Z,18.92
2018-05-08T05:38:48.177Z,18.93
2018-05-08T05:41:16.624Z,18.95
2018-05-08T05:43:45.685Z,18.96
2018-05-08T05:46:14.138Z,19.02
2018-05-08T05:48:42.705Z,19.03
2018-05-08T05:51:12.035Z,19.13
2018-05-08T05:53:40.346Z,19.26
2018-05-08T05:56:08.656Z,19.36
2018-05-08T05:58:37.045Z,19.37
2018-05-08T06:01:05.412Z,19.44
2018-05-08T06:03:33.780Z,19.54
2018-05-08T06:06:02.427Z,19.66
2018-05-08T06:08:30.747Z,19.78
2018-05-08T06:10:59.037Z,19.70
2018-05-08T06:13:27.366Z,19.71
2018-05-08T06:15:55.716Z,19.79
2018-05-08T06:18:24.015Z,19.94
2018-05-08T06:20:52.335Z,20.00
2018-05-08T06:23:20.729Z,20.12
2018-05-08T06:25:49.032Z,20.21
2018-05-08T06:28:17.549Z,20.28
2018-05-08T06:30:46.039Z,20.37
2018-05-08T06:33:15.130Z,20.35
2018-05-08T06:35:44.420Z,20.36
2018-05-08T06:38:13.538Z,20.41
2018-05-08T06:40:41.863Z,20.50
2018-05-08T06:43:10.157Z,20.63
2018-05-08T06:45:38.502Z,20.76
2018-05-08T06:48:06.851Z,20.83
2018-05-08T06:50:35.175Z,20.89
2018-05-08T06:53:03.532Z,20.98
2018-05-08T06:55:31.866Z,21.09
2018-05-08T06:58:00.956Z,21.11
2018-05-08T07:00:30.098Z,21.21
2018-05-08T07:02:58.390Z,21.31
2018-05-08T07:05:26.827Z,21.44
2018-05-08T07:07:55.186Z,21.47
2018-05-08T07:10:24.312Z,21.54
2018-05-08T07:12:53.847Z,21.59
2018-05-08T07:15:22.181Z,21.73
2018-05-08T07:17:50.507Z,21.77
2018-05-08T07:20:18.820Z,21.91
2018-05-08T07:22:47.916Z,21.92
2018-05-08T07:25:17.132Z,21.88
2018-05-08T07:27:46.205Z,22.00
2018-05-08T07:30:14.517Z,22.14
2018-05-08T07:32:42.841Z,22.31
2018-05-08T07:35:11.135Z,22.47
2018-05-08T07:37:39.457Z,22.62
2018-05-08T07:40:07.776Z,22.75
2018-05-08T07:42:36.868Z,22.86
2018-05-08T07:45:05.142Z,23.03
2018-05-08T07:47:33.542Z,23.16
2018-05-08T07:50:02.637Z,23.22
2018-05-08T07:52:30.991Z,23.31
2018-05-08T07:54:59.304Z,23.41
2018-05-08T07:57:28.415Z,23.52
2018-05-08T07:59:57.478Z,23.55
2018-05-08T08:02:25.795Z,23.58
2018-05-08T08:04:54.066Z,23.68
2018-05-08T08:07:22.495Z,23.74
2018-05-08T08:09:50.809Z,23.80
2018-05-08T08:12:20.009Z,23.84
2018-05-08T08:14:48.386Z,23.94
2018-05-08T08:17:17.550Z,23.90
2018-05-08T08:19:45.870Z,23.95
2018-05-08T08:22:14.826Z,24.05
2018-05-08T08:24:43.227Z,24.21
2018-05-08T08:27:11.499Z,24.34
2018-05-08T08:29:40.646Z,24.45
2018-05-08T08:32:08.964Z,24.45
2018-05-08T08:34:38.147Z,24.46
2018-05-08T08:37:06.517Z,24.52
2018-05-08T08:39:35.118Z,24.53
2018-05-08T08:42:04.545Z,24.59
2018-05-08T08:44:35.469Z,24.68
2018-05-08T08:47:03.773Z,24.67
2018-05-08T08:49:32.320Z,24.71
2018-05-08T08:52:01.422Z,24.79
2018-05-08T08:54:30.613Z,24.82
2018-05-08T08:56:58.946Z,24.94
2018-05-08T08:59:27.368Z,24.99
2018-05-08T09:01:55.789Z,24.99
2018-05-08T09:04:24.284Z,24.99
2018-05-08T09:06:52.733Z,24.99
2018-05-08T09:09:21.924Z,25.05
2018-05-08T09:11:51.031Z,25.04
2018-05-08T09:14:19.444Z,25.14
2018-05-08T09:16:48.761Z,25.24
2018-05-08T09:19:17.049Z,25.29
2018-05-08T09:21:46.178Z,25.24
2018-05-08T09:24:15.348Z,25.20
2018-05-08T09:26:43.649Z,25.34
2018-05-08T09:29:12.883Z,25.38
2018-05-08T09:31:41.297Z,25.36
2018-05-08T09:34:09.638Z,25.40
2018-05-08T09:36:37.947Z,25.45
2018-05-08T09:39:07.207Z,25.50
2018-05-08T09:41:35.473Z,25.56
2018-05-08T09:44:03.747Z,25.57
2018-05-08T09:46:32.102Z,25.58
2018-05-08T09:49:00.669Z,25.64
2018-05-08T09:51:28.967Z,25.80
2018-05-08T09:53:58.204Z,25.82
2018-05-08T09:56:26.501Z,25.90
2018-05-08T09:58:54.852Z,25.97
2018-05-08T10:01:23.143Z,26.03
2018-05-08T10:03:51.557Z,26.04
2018-05-08T10:06:19.877Z,26.07
2018-05-08T10:08:48.222Z,26.11
2018-05-08T10:11:17.459Z,26.19
2018-05-08T10:13:45.877Z,26.24
2018-05-08T10:16:14.283Z,26.24
2018-05-08T10:18:44.548Z,26.24
2018-05-08T10:21:12.834Z,26.23
2018-05-08T10:23:41.129Z,26.30
2018-05-08T10:26:09.556Z,26.34
2018-05-08T10:28:38.654Z,26.36
2018-05-08T10:31:07.027Z,26.47
2018-05-08T10:33:35.577Z,26.53
2018-05-08T10:36:04.142Z,26.63
2018-05-08T10:38:32.574Z,26.71
2018-05-08T10:41:01.647Z,26.76
2018-05-08T10:43:30.013Z,26.77
2018-05-08T10:45:58.347Z,26.79
2018-05-08T10:48:26.640Z,26.94
2018-05-08T10:50:55.097Z,27.01
2018-05-08T10:53:23.719Z,26.99
2018-05-08T10:55:52.042Z,27.04
2018-05-08T10:58:20.528Z,27.11
2018-05-08T11:00:48.823Z,27.20
2018-05-08T11:03:17.205Z,27.30
2018-05-08T11:05:45.789Z,27.27
2018-05-08T11:08:14.122Z,27.28
2018-05-08T11:10:43.314Z,27.37
2018-05-08T11:13:11.757Z,27.42
2018-05-08T11:15:40.103Z,27.43
2018-05-08T11:18:09.584Z,27.48
2018-05-08T11:20:39.799Z,27.63
2018-05-08T11:23:08.138Z,27.73
2018-05-08T11:25:36.492Z,27.78
2018-05-08T11:28:04.998Z,27.78
2018-05-08T11:30:33.344Z,27.85
2018-05-08T11:33:02.641Z,27.96
2018-05-08T11:35:31.037Z,27.92
2018-05-08T11:37:59.477Z,27.99
2018-05-08T11:40:27.883Z,27.99
2018-05-08T11:42:57.103Z,28.14
2018-05-08T11:45:25.633Z,28.23
2018-05-08T11:47:53.940Z,28.33
2018-05-08T11:50:23.355Z,28.43
2018-05-08T11:52:51.689Z,28.48
2018-05-08T11:55:20.304Z,28.52
2018-05-08T11:57:48.818Z,28.59
2018-05-08T12:00:17.259Z,28.69
2018-05-08T12:02:46.318Z,28.68
2018-05-08T12:05:14.714Z,28.72
2018-05-08T12:07:43.833Z,28.73
2018-05-08T12:10:12.293Z,28.84
2018-05-08T12:12:41.415Z,28.90
2018-05-08T12:15:09.769Z,28.97
2018-05-08T12:17:38.103Z,29.02
2018-05-08T12:20:06.472Z,29.16
2018-05-08T12:22:35.674Z,29.20
2018-05-08T12:25:03.969Z,29.30
2018-05-08T12:27:32.337Z,29.43
2018-05-08T12:30:00.746Z,29.50
2018-05-08T12:32:29.974Z,29.59
2018-05-08T12:34:58.502Z,29.67
2018-05-08T12:37:26.873Z,29.76
2018-05-08T12:39:55.189Z,29.84
2018-05-08T12:42:24.348Z,29.89
2018-05-08T12:44:52.784Z,29.92
2018-05-08T12:47:21.090Z,29.91
2018-05-08T12:49:49.457Z,30.05
2018-05-08T12:52:19.010Z,30.12
2018-05-08T12:54:49.027Z,30.23
2018-05-08T12:57:17.453Z,30.42
2018-05-08T12:59:45.852Z,30.62
2018-05-08T13:02:14.562Z,30.80
2018-05-08T13:04:43.095Z,30.79
2018-05-08T13:07:11.524Z,30.89
2018-05-08T13:09:39.815Z,31.07
2018-05-08T13:12:08.189Z,31.30
2018-05-08T13:14:36.583Z,31.41
2018-05-08T13:17:05.720Z,31.23
2018-05-08T13:19:34.084Z,31.05
2018-05-08T13:22:02.377Z,31.06
2018-05-08T13:24:30.887Z,31.15
2018-05-08T13:27:00.269Z,31.22
2018-05-08T13:29:28.617Z,31.04
2018-05-08T13:31:56.991Z,31.16
2018-05-08T13:34:26.092Z,31.17
2018-05-08T13:36:54.454Z,31.21
2018-05-08T13:39:23.515Z,31.42
2018-05-08T13:41:51.909Z,31.58
2018-05-08T13:44:20.209Z,31.60
2018-05-08T13:46:49.384Z,31.65
2018-05-08T13:49:18.545Z,31.76
2018-05-08T13:51:46.923Z,31.82
2018-05-08T13:54:16.384Z,31.99
2018-05-08T13:56:46.703Z,31.99
2018-05-08T13:59:15.833Z,32.10
2018-05-08T14:01:44.275Z,32.12
2018-05-08T14:04:13.614Z,32.14
2018-05-08T14:06:42.082Z,32.27
2018-05-08T14:09:10.451Z,32.40
2018-05-08T14:11:39.566Z,32.51
2018-05-08T14:14:08.023Z,32.55
2018-05-08T14:16:37.111Z,32.50
2018-05-08T14:19:06.223Z,32.46
2018-05-08T14:21:34.528Z,32.52
2018-05-08T14:24:02.829Z,32.48
2018-05-08T14:26:31.208Z,32.53
2018-05-08T14:29:00.325Z,32.64
2018-05-08T14:31:28.804Z,32.67
2018-05-08T14:33:57.910Z,32.68
2018-05-08T14:36:27.034Z,32.77
2018-05-08T14:38:55.618Z,32.91
2018-05-08T14:41:24.249Z,32.95
2018-05-08T14:43:52.609Z,33.02
2018-05-08T14:46:20.946Z,33.06
2018-05-08T14:48:49.279Z,33.05
2018-05-08T14:51:17.679Z,33.12
2018-05-08T14:53:46.860Z,33.17
2018-05-08T14:56:16.620Z,33.24
2018-05-08T14:58:45.003Z,33.40
2018-05-08T15:01:13.585Z,33.37
2018-05-08T15:03:41.933Z,33.35
2018-05-08T15:06:10.335Z,33.26
2018-05-08T15:08:38.703Z,33.18
2018-05-08T15:11:08.024Z,32.77
2018-05-08T15:13:36.475Z,32.73
2018-05-08T15:16:05.629Z,32.87
2018-05-08T15:18:33.959Z,32.96
2018-05-08T15:21:03.071Z,32.95
2018-05-08T15:23:31.396Z,33.16
2018-05-08T15:25:59.740Z,33.34
2018-05-08T15:28:28.086Z,33.54
2018-05-08T15:30:57.380Z,33.51
2018-05-08T15:33:27.647Z,33.49
2018-05-08T15:35:56.116Z,33.79
2018-05-08T15:38:25.309Z,34.53
2018-05-08T15:40:53.713Z,34.97
2018-05-08T15:43:22.130Z,35.66
2018-05-08T15:45:51.326Z,35.71
2018-05-08T15:48:20.454Z,35.96
2018-05-08T15:50:48.808Z,36.23
2018-05-08T15:53:17.912Z,37.13
2018-05-08T15:55:46.355Z,37.44
2018-05-08T15:58:14.698Z,38.18
2018-05-08T16:00:43.219Z,38.92
2018-05-08T16:03:11.888Z,39.01
2018-05-08T16:05:42.084Z,39.26
2018-05-08T16:08:10.411Z,39.80
2018-05-08T16:10:39.644Z,40.35
2018-05-08T16:13:08.117Z,40.48
2018-05-08T16:15:36.464Z,39.60
2018-05-08T16:18:05.613Z,39.89
2018-05-08T16:20:34.002Z,40.03
2018-05-08T16:23:02.410Z,40.17
2018-05-08T16:25:31.855Z,39.98
2018-05-08T16:28:00.273Z,40.07
2018-05-08T16:30:28.821Z,39.49
2018-05-08T16:32:57.130Z,40.14
2018-05-08T16:35:25.464Z,39.58
2018-05-08T16:37:54.915Z,39.36
2018-05-08T16:40:23.274Z,39.12
2018-05-08T16:42:51.609Z,38.52
2018-05-08T16:45:19.949Z,39.22
2018-05-08T16:47:49.035Z,39.88
2018-05-08T16:50:17.920Z,40.33
2018-05-08T16:52:46.522Z,40.39
2018-05-08T16:55:15.914Z,40.75
2018-05-08T16:57:44.989Z,40.70
2018-05-08T17:00:13.328Z,40.77
2018-05-08T17:02:41.810Z,39.86
2018-05-08T17:05:10.379Z,40.23
2018-05-08T17:07:38.849Z,40.02
2018-05-08T17:10:07.334Z,40.21
2018-05-08T17:12:35.680Z,39.48
2018-05-08T17:15:04.792Z,39.40
2018-05-08T17:17:33.109Z,39.08
2018-05-08T17:20:01.696Z,38.94
2018-05-08T17:22:30.333Z,37.87
2018-05-08T17:24:59.470Z,38.02
2018-05-08T17:27:28.723Z,38.12
2018-05-08T17:29:58.161Z,38.19
2018-05-08T17:32:26.541Z,38.43
2018-05-08T17:34:55.095Z,38.17
2018-05-08T17:37:23.441Z,38.12
2018-05-08T17:39:52.841Z,37.86
2018-05-08T17:42:21.332Z,37.80
2018-05-08T17:44:50.552Z,37.65
2018-05-08T17:47:18.903Z,37.66
2018-05-08T17:49:47.291Z,37.79
2018-05-08T17:52:16.625Z,37.79
2018-05-08T17:54:45.083Z,37.48
2018-05-08T17:57:13.581Z,36.82
2018-05-08T17:59:41.961Z,36.27
2018-05-08T18:02:10.401Z,35.73
2018-05-08T18:04:39.636Z,34.50
2018-05-08T18:07:08.115Z,33.26
2018-05-08T18:09:36.898Z,32.12
2018-05-08T18:12:05.235Z,31.09
2018-05-08T18:14:34.379Z,30.43
2018-05-08T18:17:02.693Z,29.93
2018-05-08T18:19:31.225Z,29.45
2018-05-08T18:21:59.604Z,29.09
2018-05-08T18:24:28.227Z,28.82
2018-05-08T18:26:56.816Z,28.56
2018-05-08T18:29:25.217Z,28.41
2018-05-08T18:31:53.651Z,28.24
2018-05-08T18:34:22.028Z,28.04
2018-05-08T18:36:50.502Z,27.90
2018-05-08T18:39:18.829Z,27.72
2018-05-08T18:41:47.170Z,27.67
2018-05-08T18:44:15.520Z,27.55
2018-05-08T18:46:43.834Z,27.41
2018-05-08T18:49:12.209Z,27.44
2018-05-08T18:51:40.510Z,27.34
2018-05-08T18:54:08.883Z,27.35
2018-05-08T18:56:37.351Z,27.21
2018-05-08T18:59:05.701Z,27.10
2018-05-08T19:01:34.032Z,27.03
2018-05-08T19:04:02.409Z,26.99
2018-05-08T19:06:31.580Z,26.87
2018-05-08T19:09:00.021Z,26.81
2018-05-08T19:11:34.009Z,26.81
2018-05-08T19:14:03.163Z,26.81
2018-05-08T19:16:31.541Z,26.77
2018-05-08T19:19:05.514Z,26.72
2018-05-08T19:21:33.894Z,26.71
2018-05-08T19:24:07.882Z,26.67
2018-05-08T19:26:36.253Z,26.69
2018-05-08T19:29:10.145Z,26.68
2018-05-08T19:31:38.609Z,26.68
2018-05-08T19:34:07.040Z,26.68
2018-05-08T19:36:41.080Z,26.64
2018-05-08T19:39:09.823Z,26.62
2018-05-08T19:41:38.176Z,26.58
2018-05-08T19:44:06.571Z,26.57
2018-05-08T19:46:35.806Z,26.49
2018-05-08T19:49:04.727Z,26.41
2018-05-08T19:51:33.147Z,26.36
2018-05-08T19:54:02.327Z,26.25
2018-05-08T19:56:30.852Z,26.22
2018-05-08T19:58:59.230Z,26.22
2018-05-08T20:01:27.835Z,26.26
2018-05-08T20:03:57.037Z,26.26
2018-05-08T20:06:25.444Z,26.21
2018-05-08T20:08:53.971Z,26.18
2018-05-08T20:11:22.349Z,26.13
2018-05-08T20:13:50.666Z,26.05
2018-05-08T20:16:19.235Z,25.96
2018-05-08T20:18:47.717Z,25.82
2018-05-08T20:21:17.241Z,25.70
2018-05-08T20:23:45.612Z,25.62
2018-05-08T20:26:14.101Z,25.46
2018-05-08T20:28:42.536Z,25.23
2018-05-08T20:31:10.924Z,25.04
2018-05-08T20:33:39.514Z,24.86
2018-05-08T20:36:07.949Z,24.75
2018-05-08T20:38:36.380Z,24.77
2018-05-08T20:41:04.754Z,24.81
2018-05-08T20:43:33.085Z,24.79
2018-05-08T20:46:02.273Z,24.81
2018-05-08T20:48:30.780Z,24.80
2018-05-08T20:50:59.623Z,24.78
2018-05-08T20:53:27.986Z,24.77
2018-05-08T20:55:56.660Z,24.66
2018-05-08T20:58:25.003Z,24.59
2018-05-08T21:00:54.174Z,24.53
2018-05-08T21:03:22.582Z,24.54
2018-05-08T21:05:50.867Z,24.52
2018-05-08T21:08:19.255Z,24.42
2018-05-08T21:10:47.736Z,24.39
2018-05-08T21:13:16.116Z,24.36
2018-05-08T21:15:44.438Z,24.26
2018-05-08T21:18:12.903Z,24.16
2018-05-08T21:20:42.615Z,24.09
2018-05-08T21:23:10.917Z,24.02
2018-05-08T21:25:40.035Z,23.98
2018-05-08T21:28:13.823Z,23.52
2018-05-08T21:30:48.453Z,23.03
2018-05-08T21:33:18.288Z,22.87
2018-05-08T21:35:48.726Z,22.86
2018-05-08T21:38:17.041Z,23.10
2018-05-08T21:40:45.802Z,23.18
2018-05-08T21:43:14.185Z,23.28
2018-05-08T21:45:42.506Z,23.22
2018-05-08T21:48:11.614Z,23.20
2018-05-08T21:50:40.760Z,23.14
2018-05-08T21:53:09.212Z,23.12
2018-05-08T21:55:37.574Z,23.07
2018-05-08T21:58:06.647Z,23.06
2018-05-08T22:00:34.946Z,23.04
2018-05-08T22:03:04.020Z,22.98
2018-05-08T22:05:32.309Z,22.67
2018-05-08T22:08:01.642Z,22.79
2018-05-08T22:10:30.327Z,22.72
2018-05-08T22:12:58.892Z,22.78
2018-05-08T22:15:27.306Z,22.78
2018-05-08T22:17:55.632Z,22.81
2018-05-08T22:20:23.961Z,22.84
2018-05-08T22:22:52.246Z,22.85
2018-05-08T22:25:20.693Z,22.82
2018-05-08T22:27:48.955Z,22.78
2018-05-08T22:30:18.154Z,22.78
2018-05-08T22:32:46.556Z,22.78
2018-05-08T22:35:15.064Z,22.76
2018-05-08T22:37:43.420Z,22.71
2018-05-08T22:40:11.949Z,22.73
2018-05-08T22:42:40.426Z,22.64
2018-05-08T22:45:09.006Z,22.42
2018-05-08T22:47:37.395Z,22.29
2018-05-08T22:50:05.669Z,22.30
2018-05-08T22:52:34.085Z,22.25
2018-05-08T22:55:02.326Z,22.29
2018-05-08T22:57:30.626Z,22.17
2018-05-08T22:59:59.768Z,22.02
2018-05-08T23:02:28.060Z,22.03
2018-05-08T23:04:58.020Z,22.03
2018-05-08T23:07:28.334Z,22.01
2018-05-08T23:09:57.444Z,22.00
2018-05-08T23:12:26.658Z,22.04
2018-05-08T23:14:55.030Z,21.99
2018-05-08T23:17:23.321Z,22.02
2018-05-08T23:19:51.639Z,21.89
2018-05-08T23:22:20.772Z,21.76
2018-05-08T23:24:49.046Z,21.67
2018-05-08T23:27:18.151Z,21.66
2018-05-08T23:29:46.465Z,21.64
2018-05-08T23:32:14.825Z,21.55
2018-05-08T23:34:43.254Z,21.55
2018-05-08T23:37:11.841Z,21.43
2018-05-08T23:39:42.057Z,21.43
2018-05-08T23:42:10.597Z,21.49
2018-05-08T23:44:39.141Z,21.51
2018-05-08T23:47:08.224Z,21.49
2018-05-08T23:49:36.716Z,21.38
2018-05-08T23:52:05.785Z,21.38
2018-05-08T23:54:34.432Z,21.25
2018-05-08T23:57:02.878Z,21.24
2018-05-08T23:59:32.106Z,21.26
